createdAt,value
2022-09-13T00:01:42.282Z,0.30
2022-09-13T00:04:09.358Z,2.60
2022-09-13T00:06:36.648Z,0.40
2022-09-13T00:09:04.693Z,1.23
2022-09-13T00:11:33.251Z,0.57
2022-09-13T00:14:02.376Z,1.73
2022-09-13T00:16:30.418Z,0.70
2022-09-13T00:18:57.861Z,0.80
2022-09-13T00:21:25.432Z,1.50
2022-09-13T00:23:57.368Z,2.40
2022-09-13T00:26:27.598Z,0.90
2022-09-13T00:28:56.216Z,1.05
2022-09-13T00:31:27.148Z,3.30
2022-09-13T00:33:53.926Z,0.75
2022-09-13T00:36:22.180Z,0.85
2022-09-13T00:38:49.562Z,0.93
2022-09-13T00:41:18.605Z,2.70
2022-09-13T00:43:55.946Z,2.40
2022-09-13T00:46:40.295Z,0.60
2022-09-13T00:51:40.814Z,1.27
2022-09-13T00:54:07.840Z,1.27
2022-09-13T00:56:41.735Z,0.85
2022-09-13T00:59:12.706Z,3.20
2022-09-13T01:01:46.236Z,0.73
2022-09-13T01:04:17.136Z,0.73
2022-09-13T01:06:44.533Z,0.63
2022-09-13T01:09:13.116Z,1.92
2022-09-13T01:11:42.830Z,1.38
2022-09-13T01:14:19.598Z,0.70
2022-09-13T01:16:48.222Z,1.58
2022-09-13T01:19:23.283Z,0.50
2022-09-13T01:21:53.685Z,1.10
2022-09-13T01:24:33.359Z,2.25
2022-09-13T01:27:23.538Z,2.58
2022-09-13T01:30:02.790Z,1.55
2022-09-13T01:32:49.307Z,0.17
2022-09-13T01:35:28.302Z,3.92
2022-09-13T01:37:58.911Z,3.78
2022-09-13T01:40:33.455Z,0.80
2022-09-13T01:43:13.307Z,0.60
2022-09-13T01:45:45.118Z,0.80
2022-09-13T01:48:23.587Z,0.30
2022-09-13T01:50:58.513Z,0.47
2022-09-13T01:53:40.637Z,0.43
2022-09-13T01:56:26.535Z,1.17
2022-09-13T01:58:55.826Z,0.30
2022-09-13T02:01:25.736Z,0.30
2022-09-13T02:04:07.956Z,1.13
2022-09-13T02:06:41.875Z,1.13
2022-09-13T02:11:35.706Z,0.20
2022-09-13T02:14:07.903Z,0.10
2022-09-13T02:16:38.476Z,0.30
2022-09-13T02:19:26.931Z,0.20
2022-09-13T02:21:57.021Z,0.50
2022-09-13T02:24:26.788Z,0.88
2022-09-13T02:26:56.060Z,0.47
2022-09-13T02:29:24.955Z,0.55
2022-09-13T02:32:04.460Z,0.28
2022-09-13T02:34:38.505Z,0.43
2022-09-13T02:39:32.723Z,0.30
2022-09-13T02:42:19.677Z,0.65
2022-09-13T02:44:53.091Z,0.73
2022-09-13T02:47:28.925Z,0.20
2022-09-13T02:49:57.712Z,0.10
2022-09-13T02:52:34.975Z,0.30
2022-09-13T02:55:20.420Z,1.33
2022-09-13T02:58:05.828Z,0.40
2022-09-13T03:00:32.565Z,0.20
2022-09-13T03:03:03.067Z,0.25
2022-09-13T03:05:29.674Z,1.88
2022-09-13T03:07:56.876Z,0.40
2022-09-13T03:10:23.690Z,0.10
2022-09-13T03:13:06.229Z,0.43
2022-09-13T03:15:59.934Z,0.22
2022-09-13T03:18:32.623Z,0.67
2022-09-13T03:21:02.320Z,0.75
2022-09-13T03:23:37.979Z,0.88
2022-09-13T03:26:04.663Z,0.90
2022-09-13T03:28:38.200Z,0.98
2022-09-13T03:31:21.107Z,0.20
2022-09-13T03:33:57.223Z,0.22
2022-09-13T03:36:23.809Z,4.07
2022-09-13T03:39:00.743Z,0.95
2022-09-13T03:41:32.971Z,0.57
2022-09-13T03:44:01.329Z,1.55
2022-09-13T03:46:27.883Z,0.45
2022-09-13T03:48:54.880Z,0.68
2022-09-13T03:51:21.446Z,1.58
2022-09-13T03:53:50.523Z,2.45
2022-09-13T03:56:18.666Z,0.75
2022-09-13T03:58:46.196Z,0.35
2022-09-13T04:01:13.256Z,0.50
2022-09-13T04:03:39.958Z,1.10
2022-09-13T04:06:07.354Z,0.90
2022-09-13T04:08:34.090Z,1.52
2022-09-13T04:11:01.658Z,0.60
2022-09-13T04:13:28.588Z,0.30
2022-09-13T04:15:55.330Z,0.85
2022-09-13T04:18:22.107Z,1.17
2022-09-13T04:20:58.899Z,2.90
2022-09-13T04:23:26.704Z,2.63
2022-09-13T04:25:53.670Z,0.25
2022-09-13T04:28:21.061Z,0.63
2022-09-13T04:30:48.629Z,2.22
2022-09-13T04:33:16.222Z,1.35
2022-09-13T04:35:43.323Z,1.15
2022-09-13T04:38:09.889Z,2.30
2022-09-13T04:40:37.491Z,0.38
2022-09-13T04:43:04.121Z,3.45
2022-09-13T04:45:30.687Z,0.52
2022-09-13T04:47:57.367Z,0.20
2022-09-13T04:50:24.719Z,0.90
2022-09-13T04:52:52.181Z,0.22
2022-09-13T04:55:18.729Z,1.40
2022-09-13T04:57:45.281Z,1.13
2022-09-13T05:00:12.706Z,0.38
2022-09-13T05:02:39.488Z,0.40
2022-09-13T05:05:06.125Z,0.85
2022-09-13T05:07:32.697Z,0.10
2022-09-13T05:09:59.195Z,1.30
2022-09-13T05:12:25.734Z,1.63
2022-09-13T05:14:52.268Z,0.10
2022-09-13T05:17:18.732Z,1.02
2022-09-13T05:19:45.221Z,0.45
2022-09-13T05:22:11.744Z,0.55
2022-09-13T05:24:38.299Z,0.75
2022-09-13T05:27:04.984Z,1.02
2022-09-13T05:29:31.642Z,0.57
2022-09-13T05:31:58.880Z,0.55
2022-09-13T05:34:25.513Z,0.60
2022-09-13T05:36:54.421Z,0.43
2022-09-13T05:39:34.091Z,0.17
2022-09-13T05:42:06.443Z,0.22
2022-09-13T05:44:33.109Z,0.45
2022-09-13T05:46:59.884Z,0.40
2022-09-13T05:49:26.637Z,0.80
2022-09-13T05:51:53.182Z,1.13
2022-09-13T05:54:19.817Z,0.82
2022-09-13T05:56:46.334Z,1.98
2022-09-13T05:59:14.305Z,1.83
2022-09-13T06:01:41.239Z,2.40
2022-09-13T06:04:07.895Z,1.40
2022-09-13T06:06:35.495Z,0.90
2022-09-13T06:09:02.297Z,0.85
2022-09-13T06:11:29.001Z,2.90
2022-09-13T06:13:56.289Z,0.52
2022-09-13T06:16:22.927Z,3.15
2022-09-13T06:18:50.165Z,1.08
2022-09-13T06:21:19.234Z,0.90
2022-09-13T06:23:46.072Z,1.10
2022-09-13T06:26:14.151Z,0.30
2022-09-13T06:28:45.198Z,1.50
2022-09-13T06:31:13.555Z,2.42
2022-09-13T06:33:41.884Z,0.50
2022-09-13T06:36:13.938Z,0.88
2022-09-13T06:38:40.780Z,3.33
2022-09-13T06:41:12.742Z,0.47
2022-09-13T06:43:39.626Z,0.88
2022-09-13T06:46:10.420Z,2.10
2022-09-13T06:48:38.655Z,0.63
2022-09-13T06:51:06.670Z,0.73
2022-09-13T06:53:34.197Z,1.00
2022-09-13T06:56:01.648Z,0.57
2022-09-13T06:58:29.985Z,0.68
2022-09-13T07:01:05.261Z,0.73
2022-09-13T07:03:31.790Z,5.30
2022-09-13T07:05:58.255Z,2.72
2022-09-13T07:08:24.837Z,0.93
2022-09-13T07:10:51.306Z,1.85
2022-09-13T07:13:17.775Z,1.42
2022-09-13T07:15:44.313Z,1.63
2022-09-13T07:18:10.919Z,2.45
2022-09-13T07:20:37.383Z,3.25
2022-09-13T07:23:03.878Z,1.63
2022-09-13T07:25:30.380Z,1.25
2022-09-13T07:27:56.843Z,1.83
2022-09-13T07:30:25.826Z,1.35
2022-09-13T07:32:52.377Z,0.80
2022-09-13T07:35:19.155Z,1.35
2022-09-13T07:37:46.780Z,3.30
2022-09-13T07:40:13.994Z,3.45
2022-09-13T07:42:40.595Z,1.90
2022-09-13T07:45:07.313Z,2.63
2022-09-13T07:47:33.795Z,2.22
2022-09-13T07:50:00.356Z,0.60
2022-09-13T07:52:28.756Z,1.30
2022-09-13T07:54:55.240Z,1.67
2022-09-13T07:57:21.774Z,1.48
2022-09-13T07:59:48.275Z,0.88
2022-09-13T08:02:15.627Z,1.45
2022-09-13T08:04:42.127Z,3.28
2022-09-13T08:07:08.655Z,1.15
2022-09-13T08:09:35.176Z,4.63
2022-09-13T08:12:01.756Z,2.90
2022-09-13T08:14:28.275Z,1.60
2022-09-13T08:16:55.471Z,1.92
2022-09-13T08:19:21.989Z,3.47
2022-09-13T08:21:48.494Z,2.80
2022-09-13T08:24:16.660Z,2.38
2022-09-13T08:26:43.277Z,0.75
2022-09-13T08:29:11.158Z,1.17
2022-09-13T08:31:38.255Z,1.70
2022-09-13T08:34:04.785Z,1.17
2022-09-13T08:36:31.267Z,1.55
2022-09-13T08:38:59.612Z,3.08
2022-09-13T08:41:48.107Z,3.03
2022-09-13T08:44:28.694Z,3.10
2022-09-13T08:47:06.627Z,1.65
2022-09-13T08:49:40.824Z,6.80
2022-09-13T08:52:13.521Z,2.65
2022-09-13T08:54:40.024Z,2.95
2022-09-13T08:57:06.561Z,1.88
2022-09-13T08:59:42.526Z,1.13
2022-09-13T09:02:15.301Z,2.70
2022-09-13T09:04:55.336Z,4.05
2022-09-13T09:07:24.995Z,4.15
2022-09-13T09:10:24.051Z,2.05
2022-09-13T09:12:50.636Z,5.15
2022-09-13T09:15:22.347Z,4.25
2022-09-13T09:17:55.739Z,2.47
2022-09-13T09:20:42.187Z,1.23
2022-09-13T09:23:19.079Z,2.88
2022-09-13T09:25:48.023Z,2.50
2022-09-13T09:28:15.977Z,2.42
2022-09-13T09:31:03.057Z,1.33
2022-09-13T09:33:32.608Z,4.72
2022-09-13T09:36:05.859Z,5.40
2022-09-13T09:38:32.321Z,3.22
2022-09-13T09:41:05.915Z,2.05
2022-09-13T09:43:38.958Z,5.55
2022-09-13T09:46:07.353Z,1.77
2022-09-13T09:48:54.443Z,1.92
2022-09-13T09:51:22.367Z,1.88
2022-09-13T09:53:52.011Z,2.25
2022-09-13T09:56:38.804Z,2.90
2022-09-13T09:59:24.788Z,1.35
2022-09-13T10:01:51.380Z,2.63
2022-09-13T10:04:22.265Z,1.05
2022-09-13T10:06:50.029Z,1.27
2022-09-13T10:09:18.453Z,1.75
2022-09-13T10:11:48.086Z,2.92
2022-09-13T10:14:28.604Z,4.40
2022-09-13T10:17:13.399Z,2.15
2022-09-13T10:19:39.945Z,1.83
2022-09-13T10:22:11.403Z,1.48
2022-09-13T10:24:38.214Z,2.30
2022-09-13T10:27:05.441Z,1.88
2022-09-13T10:29:32.234Z,2.03
2022-09-13T10:31:59.015Z,3.75
2022-09-13T10:34:30.779Z,3.00
2022-09-13T10:37:17.866Z,3.78
2022-09-13T10:39:53.686Z,2.85
2022-09-13T10:42:23.677Z,2.22
2022-09-13T10:44:58.211Z,2.85
2022-09-13T10:47:54.610Z,3.05
2022-09-13T10:50:25.786Z,3.08
2022-09-13T10:52:53.033Z,1.83
2022-09-13T10:55:19.506Z,2.30
2022-09-13T10:57:47.618Z,4.35
2022-09-13T11:00:17.441Z,5.63
2022-09-13T11:02:46.917Z,2.00
2022-09-13T11:05:29.127Z,2.92
2022-09-13T11:08:07.351Z,1.55
2022-09-13T11:10:33.980Z,3.45
2022-09-13T11:13:19.179Z,1.90
2022-09-13T11:16:03.961Z,1.65
2022-09-13T11:18:30.434Z,2.92
2022-09-13T11:21:15.619Z,5.63
2022-09-13T11:23:47.051Z,1.70
2022-09-13T11:26:16.624Z,3.47
2022-09-13T11:28:52.381Z,2.38
2022-09-13T11:31:37.329Z,3.15
2022-09-13T11:34:22.624Z,1.95
2022-09-13T11:36:55.367Z,5.05
2022-09-13T11:39:32.651Z,0.77
2022-09-13T11:42:11.576Z,1.60
2022-09-13T11:44:56.599Z,4.43
2022-09-13T11:47:23.055Z,2.00
2022-09-13T11:50:08.707Z,2.53
2022-09-13T11:52:41.719Z,1.33
2022-09-13T11:55:19.460Z,1.67
2022-09-13T11:58:04.411Z,1.92
2022-09-13T12:00:41.347Z,3.92
2022-09-13T12:03:11.282Z,5.22
2022-09-13T12:05:44.736Z,0.77
2022-09-13T12:08:18.382Z,1.58
2022-09-13T12:10:47.923Z,2.47
2022-09-13T12:13:17.470Z,2.05
2022-09-13T12:15:46.636Z,3.10
2022-09-13T12:18:16.202Z,1.67
2022-09-13T12:20:47.234Z,1.05
2022-09-13T12:23:26.466Z,2.90
2022-09-13T12:26:02.759Z,3.05
2022-09-13T12:28:39.377Z,2.08
2022-09-13T12:31:10.064Z,3.42
2022-09-13T12:33:41.266Z,2.65
2022-09-13T12:36:10.898Z,2.88
2022-09-13T12:38:46.469Z,2.03
2022-09-13T12:41:33.225Z,2.72
2022-09-13T12:44:18.600Z,3.28
2022-09-13T12:47:00.390Z,1.48
2022-09-13T12:49:45.689Z,1.38
2022-09-13T12:52:26.977Z,1.70
2022-09-13T12:54:55.465Z,3.17
2022-09-13T12:57:25.063Z,2.00
2022-09-13T12:59:51.490Z,0.88
2022-09-13T13:02:24.120Z,4.10
2022-09-13T13:04:54.365Z,2.78
2022-09-13T13:07:22.621Z,2.90
2022-09-13T13:09:53.427Z,3.50
2022-09-13T13:12:29.129Z,2.88
2022-09-13T13:14:56.834Z,2.00
2022-09-13T13:17:38.700Z,1.00
2022-09-13T13:20:23.940Z,2.53
2022-09-13T13:22:51.405Z,2.17
2022-09-13T13:25:38.021Z,1.00
2022-09-13T13:28:25.081Z,0.57
2022-09-13T13:30:53.738Z,1.73
2022-09-13T13:33:26.115Z,1.65
2022-09-13T13:35:52.993Z,1.90
2022-09-13T13:38:22.221Z,3.63
2022-09-13T13:40:51.142Z,2.67
2022-09-13T13:43:31.905Z,1.50
2022-09-13T13:46:18.688Z,0.77
2022-09-13T13:48:45.220Z,2.70
2022-09-13T13:51:15.551Z,2.33
2022-09-13T13:53:53.795Z,3.03
2022-09-13T13:56:22.718Z,2.88
2022-09-13T13:58:51.051Z,3.78
2022-09-13T14:01:20.707Z,1.42
2022-09-13T14:04:06.202Z,1.40
2022-09-13T14:06:49.898Z,1.95
2022-09-13T14:09:19.687Z,1.52
2022-09-13T14:12:12.675Z,2.47
2022-09-13T14:14:39.118Z,2.03
2022-09-13T14:17:32.055Z,1.63
2022-09-13T14:20:06.005Z,1.55
2022-09-13T14:25:12.637Z,1.17
2022-09-13T14:27:40.318Z,1.33
2022-09-13T14:30:19.099Z,1.92
2022-09-13T14:32:47.134Z,2.15
2022-09-13T14:35:30.703Z,2.75
2022-09-13T14:38:09.755Z,0.90
2022-09-13T14:40:37.879Z,2.42
2022-09-13T14:43:14.520Z,3.78
2022-09-13T14:45:41.718Z,1.25
2022-09-13T14:48:12.852Z,3.08
2022-09-13T14:50:40.752Z,4.82
2022-09-13T14:53:08.825Z,2.10
2022-09-13T14:55:42.361Z,3.33
2022-09-13T14:58:15.937Z,2.78
2022-09-13T15:01:02.342Z,3.03
2022-09-13T15:03:29.035Z,3.28
2022-09-13T15:05:57.354Z,5.60
2022-09-13T15:08:28.356Z,2.05
2022-09-13T15:10:57.107Z,5.10
2022-09-13T15:13:23.601Z,1.25
2022-09-13T15:15:50.202Z,2.45
2022-09-13T15:18:16.935Z,3.55
2022-09-13T15:20:51.646Z,1.45
2022-09-13T15:23:20.661Z,1.92
2022-09-13T15:25:52.154Z,2.35
2022-09-13T15:28:23.328Z,1.00
2022-09-13T15:30:49.911Z,2.67
2022-09-13T15:33:23.929Z,3.33
2022-09-13T15:38:19.886Z,4.40
2022-09-13T15:40:47.499Z,2.08
2022-09-13T15:43:14.059Z,6.32
2022-09-13T15:45:40.531Z,3.80
2022-09-13T15:48:07.144Z,2.50
2022-09-13T15:50:34.606Z,3.70
2022-09-13T15:53:01.256Z,2.25
2022-09-13T15:55:28.248Z,9.35
2022-09-13T15:57:55.133Z,4.47
2022-09-13T16:00:25.876Z,1.38
2022-09-13T16:02:52.926Z,2.80
2022-09-13T16:05:19.756Z,4.15
2022-09-13T16:07:46.641Z,1.23
2022-09-13T16:10:15.219Z,2.00
2022-09-13T16:12:41.834Z,0.93
2022-09-13T16:15:08.699Z,4.38
2022-09-13T16:17:35.231Z,2.90
2022-09-13T16:20:01.815Z,3.40
2022-09-13T16:22:28.366Z,1.92
2022-09-13T16:24:54.886Z,6.93
2022-09-13T16:27:21.374Z,1.38
2022-09-13T16:29:47.963Z,2.88
2022-09-13T16:32:14.519Z,1.13
2022-09-13T16:34:41.143Z,2.83
2022-09-13T16:37:07.650Z,1.80
2022-09-13T16:39:34.123Z,2.58
2022-09-13T16:42:00.674Z,2.97
2022-09-13T16:44:27.111Z,3.65
2022-09-13T16:46:53.685Z,1.77
2022-09-13T16:49:20.235Z,2.63
2022-09-13T16:51:46.766Z,3.75
2022-09-13T16:54:13.271Z,1.92
2022-09-13T16:56:39.790Z,2.85
2022-09-13T16:59:06.225Z,4.28
2022-09-13T17:01:33.209Z,3.13
2022-09-13T17:03:59.797Z,4.28
2022-09-13T17:06:26.811Z,2.72
2022-09-13T17:08:58.367Z,4.93
2022-09-13T17:11:26.799Z,2.78
2022-09-13T17:13:53.905Z,4.57
2022-09-13T17:16:26.107Z,2.38
2022-09-13T17:18:53.427Z,4.10
2022-09-13T17:21:20.093Z,4.28
2022-09-13T17:23:46.613Z,5.47
2022-09-13T17:26:13.094Z,3.42
2022-09-13T17:28:39.782Z,3.00
2022-09-13T17:31:06.849Z,6.72
2022-09-13T17:33:33.461Z,4.57
2022-09-13T17:36:08.412Z,5.18
2022-09-13T17:38:35.713Z,3.90
2022-09-13T17:41:03.457Z,4.30
2022-09-13T17:43:30.219Z,4.68
2022-09-13T17:45:57.355Z,1.95
2022-09-13T17:48:23.971Z,5.18
2022-09-13T17:50:50.520Z,4.18
2022-09-13T17:53:17.038Z,1.92
2022-09-13T17:55:47.559Z,4.75
2022-09-13T17:58:14.756Z,2.92
2022-09-13T18:00:41.713Z,6.43
2022-09-13T18:03:08.322Z,2.97
2022-09-13T18:05:34.853Z,2.65
2022-09-13T18:08:01.434Z,4.85
2022-09-13T18:10:49.133Z,5.88
2022-09-13T18:13:14.650Z,6.82
2022-09-13T18:15:41.147Z,3.75
2022-09-13T18:18:07.775Z,2.90
2022-09-13T18:20:38.561Z,2.45
2022-09-13T18:23:08.160Z,5.18
2022-09-13T18:25:34.602Z,7.30
2022-09-13T18:28:01.219Z,1.70
2022-09-13T18:30:27.678Z,3.80
2022-09-13T18:32:54.310Z,5.15
2022-09-13T18:35:20.963Z,7.82
2022-09-13T18:37:47.855Z,2.88
2022-09-13T18:40:18.248Z,7.80
2022-09-13T18:42:45.210Z,7.05
2022-09-13T18:45:11.887Z,7.18
2022-09-13T18:47:38.355Z,6.10
2022-09-13T18:50:05.080Z,6.60
2022-09-13T18:52:31.768Z,9.65
2022-09-13T18:54:58.255Z,10.48
2022-09-13T18:57:24.807Z,8.18
2022-09-13T18:59:51.329Z,6.80
2022-09-13T19:02:18.476Z,9.05
2022-09-13T19:04:45.012Z,8.38
2022-09-13T19:07:11.510Z,6.40
2022-09-13T19:09:38.648Z,6.47
2022-09-13T19:12:05.713Z,8.27
2022-09-13T19:14:32.907Z,9.18
2022-09-13T19:17:03.207Z,5.45
2022-09-13T19:19:31.194Z,7.55
2022-09-13T19:21:57.835Z,4.57
2022-09-13T19:24:24.558Z,4.85
2022-09-13T19:26:51.772Z,6.57
2022-09-13T19:29:19.842Z,6.28
2022-09-13T19:31:48.425Z,6.90
2022-09-13T19:34:15.626Z,18.63
2022-09-13T19:36:43.255Z,5.93
2022-09-13T19:39:10.443Z,12.45
2022-09-13T19:41:37.728Z,5.25
2022-09-13T19:44:04.844Z,12.23
2022-09-13T19:46:32.988Z,4.10
2022-09-13T19:49:00.382Z,7.90
2022-09-13T19:51:28.255Z,12.55
2022-09-13T19:53:57.705Z,7.60
2022-09-13T19:56:26.145Z,6.53
2022-09-13T19:58:52.800Z,7.55
2022-09-13T20:01:20.758Z,8.68
2022-09-13T20:03:52.368Z,6.32
2022-09-13T20:06:19.320Z,10.43
2022-09-13T20:08:45.928Z,11.98
2022-09-13T20:11:14.295Z,8.55
2022-09-13T20:13:40.857Z,11.93
2022-09-13T20:16:17.837Z,4.97
2022-09-13T20:18:44.615Z,7.20
2022-09-13T20:21:11.525Z,5.30
2022-09-13T20:23:39.130Z,7.40
2022-09-13T20:26:13.045Z,9.15
2022-09-13T20:28:39.822Z,7.22
2022-09-13T20:31:06.477Z,5.55
2022-09-13T20:33:33.097Z,9.50
2022-09-13T20:36:04.126Z,11.20
2022-09-13T20:38:31.081Z,4.60
2022-09-13T20:41:08.358Z,8.27
2022-09-13T20:43:35.644Z,9.60
2022-09-13T20:46:02.503Z,10.43
2022-09-13T20:48:29.059Z,8.82
2022-09-13T20:50:56.317Z,7.80
2022-09-13T20:53:22.803Z,9.77
2022-09-13T20:55:49.471Z,7.65
2022-09-13T20:58:15.975Z,8.15
2022-09-13T21:00:42.499Z,16.95
2022-09-13T21:03:10.333Z,4.72
2022-09-13T21:05:37.188Z,7.22
2022-09-13T21:10:58.665Z,7.30
2022-09-13T21:13:25.349Z,5.75
2022-09-13T21:15:51.906Z,8.13
2022-09-13T21:18:18.540Z,8.23
2022-09-13T21:20:54.006Z,10.23
2022-09-13T21:23:21.280Z,6.63
2022-09-13T21:25:47.892Z,7.68
2022-09-13T21:28:14.506Z,7.80
2022-09-13T21:30:41.163Z,6.60
2022-09-13T21:33:07.855Z,4.18
2022-09-13T21:35:39.762Z,7.75
2022-09-13T21:38:06.318Z,5.80
2022-09-13T21:40:32.985Z,4.75
2022-09-13T21:42:59.530Z,5.60
2022-09-13T21:45:26.099Z,5.50
2022-09-13T21:47:53.047Z,8.18
2022-09-13T21:50:19.550Z,4.82
2022-09-13T21:52:46.011Z,7.20
2022-09-13T21:55:12.494Z,5.78
2022-09-13T21:57:39.114Z,7.63
2022-09-13T22:00:06.617Z,4.55
2022-09-13T22:02:33.252Z,9.07
2022-09-13T22:05:00.354Z,6.22
2022-09-13T22:07:26.819Z,5.30
2022-09-13T22:09:53.264Z,4.75
2022-09-13T22:12:21.722Z,6.00
2022-09-13T22:14:48.663Z,5.38
2022-09-13T22:17:15.186Z,7.20
2022-09-13T22:19:41.636Z,4.55
2022-09-13T22:22:08.155Z,6.90
2022-09-13T22:24:36.523Z,6.47
2022-09-13T22:27:03.330Z,5.10
2022-09-13T22:29:30.091Z,4.88
2022-09-13T22:31:56.623Z,5.78
2022-09-13T22:34:24.218Z,6.63
2022-09-13T22:36:50.996Z,6.45
2022-09-13T22:39:17.469Z,3.33
2022-09-13T22:41:44.178Z,7.47
2022-09-13T22:44:10.819Z,5.10
2022-09-13T22:46:41.934Z,10.82
2022-09-13T22:49:11.367Z,5.03
2022-09-13T22:51:37.803Z,5.22
2022-09-13T22:54:07.124Z,5.45
2022-09-13T22:56:34.390Z,7.68
2022-09-13T22:59:02.521Z,4.05
2022-09-13T23:01:29.720Z,5.75
2022-09-13T23:03:57.821Z,5.65
2022-09-13T23:06:25.233Z,5.15
2022-09-13T23:08:52.460Z,4.68
2022-09-13T23:11:21.245Z,5.68
2022-09-13T23:13:48.500Z,4.88
2022-09-13T23:16:21.163Z,5.75
2022-09-13T23:18:48.305Z,10.25
2022-09-13T23:21:16.995Z,8.52
2022-09-13T23:23:43.479Z,9.60
2022-09-13T23:26:11.497Z,2.20
2022-09-13T23:28:39.407Z,9.40
2022-09-13T23:31:09.839Z,7.35
2022-09-13T23:33:43.553Z,5.75
2022-09-13T23:36:11.375Z,6.03
2022-09-13T23:38:38.539Z,6.75
2022-09-13T23:41:05.070Z,4.80
2022-09-13T23:43:31.668Z,5.50
2022-09-13T23:45:58.347Z,8.40
2022-09-13T23:48:24.884Z,6.00
2022-09-13T23:51:18.001Z,5.20
2022-09-13T23:53:44.837Z,8.23
2022-09-13T23:56:12.044Z,6.40
2022-09-13T23:58:39.133Z,7.38
